Time;durP1;ratioP1;P1;durP2;ratioP2;P2;SDS_P1;SDS_P2;PMS_P1;PMS_P2;Temp;Humidity;BMP_temperature;BMP_pressure;BME280_temperature;BME280_humidity;BME280_pressure;Samples;Min_cycle;Max_cycle;Signal;HPM_P1;HPM_P2
2021/10/27 00:01:09;;;;;;;8.17;5.50;;;10.40;99.90;;;;;;5049039;28;20451;-82
2021/10/27 00:03:35;;;;;;;10.43;5.90;;;10.20;99.90;;;;;;5048323;28;20485;-83
2021/10/27 00:06:02;;;;;;;7.93;5.37;;;9.80;99.90;;;;;;5048959;28;20474;-82
2021/10/27 00:08:29;;;;;;;8.40;6.13;;;;;;;;;;5054205;28;20489;-81
2021/10/27 00:10:56;;;;;;;8.80;6.83;;;10.70;99.90;;;;;;5053425;28;20518;-81
2021/10/27 00:13:23;;;;;;;7.47;6.13;;;9.90;99.90;;;;;;5052444;28;20474;-82
2021/10/27 00:15:49;;;;;;;9.37;5.77;;;10.00;99.90;;;;;;5053287;28;20446;-82
2021/10/27 00:18:20;;;;;;;10.93;6.30;;;10.80;99.90;;;;;;5055460;28;20477;-82
2021/10/27 00:20:47;;;;;;;10.37;6.93;;;10.40;99.90;;;;;;5055146;28;20412;-82
2021/10/27 00:23:14;;;;;;;11.00;7.20;;;10.60;99.90;;;;;;5049488;28;20538;-81
2021/10/27 00:25:41;;;;;;;9.47;6.10;;;;;;;;;;5048607;28;20426;-83
2021/10/27 00:28:08;;;;;;;6.67;6.03;;;;;;;;;;5047958;28;20447;-83
2021/10/27 00:30:34;;;;;;;10.10;6.17;;;10.70;99.90;;;;;;5047497;28;20485;-82
2021/10/27 00:33:01;;;;;;;7.90;7.00;;;10.20;99.90;;;;;;5048208;28;20497;-82
2021/10/27 00:35:29;;;;;;;9.07;6.10;;;10.70;99.90;;;;;;5047625;28;20451;-82
2021/10/27 00:37:56;;;;;;;8.00;6.27;;;;;;;;;;5048600;28;20473;-82
2021/10/27 00:40:23;;;;;;;10.03;7.63;;;;;;;;;;5047938;28;20462;-82
2021/10/27 00:42:49;;;;;;;7.70;6.73;;;10.70;99.90;;;;;;5046048;28;20466;-82
2021/10/27 00:45:16;;;;;;;9.00;6.20;;;10.50;99.90;;;;;;5047995;28;20640;-81
2021/10/27 00:47:43;;;;;;;6.33;5.73;;;10.30;99.90;;;;;;5048366;28;20477;-83
2021/10/27 00:50:10;;;;;;;6.40;5.77;;;9.60;99.90;;;;;;5048177;28;20467;-83
2021/10/27 00:52:38;;;;;;;11.27;6.60;;;10.60;99.90;;;;;;5054877;28;20969;-80
2021/10/27 00:55:05;;;;;;;6.77;5.50;;;10.10;99.90;;;;;;5055001;28;20451;-81
2021/10/27 00:57:32;;;;;;;9.90;6.37;;;10.70;99.90;;;;;;5055985;28;20451;-81
2021/10/27 00:59:58;;;;;;;8.13;5.83;;;10.50;99.90;;;;;;5051402;28;20517;-82
2021/10/27 01:02:25;;;;;;;7.43;6.47;;;10.00;99.90;;;;;;5048807;28;20451;-82
2021/10/27 01:04:52;;;;;;;7.60;5.80;;;10.20;99.90;;;;;;5048258;28;20475;-83
2021/10/27 01:07:18;;;;;;;7.47;6.20;;;10.40;99.90;;;;;;5047534;28;20451;-82
2021/10/27 01:09:46;;;;;;;6.70;5.80;;;10.50;99.90;;;;;;5048361;28;20449;-81
2021/10/27 01:12:13;;;;;;;7.40;6.70;;;9.70;99.90;;;;;;5047751;28;20447;-82
2021/10/27 01:14:41;;;;;;;7.40;6.30;;;10.10;99.90;;;;;;5048540;28;20471;-81
2021/10/27 01:17:11;;;;;;;7.70;6.47;;;11.30;99.90;;;;;;5048836;28;20478;-82
2021/10/27 01:19:46;;;;;;;7.50;5.57;;;10.40;99.90;;;;;;5048209;28;20434;-82
2021/10/27 01:22:12;;;;;;;5.40;4.90;;;10.00;99.90;;;;;;5048138;28;20426;-82
2021/10/27 01:24:39;;;;;;;6.47;5.77;;;10.20;99.90;;;;;;5048014;28;20495;-81
2021/10/27 01:27:06;;;;;;;6.57;5.17;;;;;;;;;;5047156;28;20425;-81
2021/10/27 01:29:34;;;;;;;6.10;5.50;;;10.70;99.90;;;;;;5048232;28;20810;-81
2021/10/27 01:32:00;;;;;;;6.90;5.90;;;10.50;99.90;;;;;;5049047;28;20558;-82
2021/10/27 01:34:27;;;;;;;5.50;4.90;;;10.60;99.90;;;;;;5049148;28;20473;-80
2021/10/27 01:36:55;;;;;;;11.17;6.07;;;10.50;99.90;;;;;;5057440;28;20454;-82
2021/10/27 01:39:22;;;;;;;6.00;5.20;;;10.70;99.90;;;;;;5048426;28;20467;-82
2021/10/27 01:41:49;;;;;;;7.80;6.07;;;10.30;99.90;;;;;;5047441;28;20458;-82
2021/10/27 01:44:16;;;;;;;7.77;6.33;;;10.20;99.90;;;;;;5045554;28;20539;-82
2021/10/27 01:46:43;;;;;;;8.10;5.57;;;10.70;99.90;;;;;;5047010;28;20456;-82
2021/10/27 01:49:12;;;;;;;9.37;6.70;;;10.50;99.90;;;;;;5046583;28;20441;-82
2021/10/27 01:51:39;;;;;;;9.20;6.10;;;;;;;;;;5056354;28;20445;-80
2021/10/27 01:54:08;;;;;;;7.60;6.17;;;10.60;99.90;;;;;;5058132;28;20427;-81
2021/10/27 01:56:35;;;;;;;11.00;7.33;;;10.00;99.90;;;;;;5056340;28;20418;-82
2021/10/27 01:59:01;;;;;;;7.30;6.27;;;10.70;99.90;;;;;;5054893;28;20491;-82
2021/10/27 02:01:28;;;;;;;7.53;6.57;;;;;;;;;;5054619;28;20470;-81
2021/10/27 02:03:56;;;;;;;8.70;6.57;;;10.60;99.90;;;;;;5054849;28;20938;-81
2021/10/27 02:06:22;;;;;;;7.63;6.80;;;11.90;99.90;;;;;;5049300;28;20429;-82
2021/10/27 02:08:49;;;;;;;6.47;5.87;;;10.60;99.90;;;;;;5046835;28;20453;-83
2021/10/27 02:11:17;;;;;;;10.67;6.57;;;10.60;99.90;;;;;;5046633;28;20472;-83
2021/10/27 02:13:44;;;;;;;15.93;7.23;;;10.10;99.90;;;;;;5045964;28;20443;-83
2021/10/27 02:16:11;;;;;;;8.30;6.60;;;9.80;99.90;;;;;;5046900;28;20428;-81
2021/10/27 02:18:38;;;;;;;10.37;6.50;;;10.00;99.90;;;;;;5047768;28;20469;-82
2021/10/27 02:21:05;;;;;;;9.50;7.77;;;10.50;99.90;;;;;;5047041;28;20421;-82
2021/10/27 02:23:33;;;;;;;12.27;7.53;;;10.50;99.90;;;;;;5047910;28;20802;-82
2021/10/27 02:26:00;;;;;;;8.03;7.23;;;;;;;;;;5048219;28;20982;-82
2021/10/27 02:28:28;;;;;;;9.63;7.40;;;10.70;99.90;;;;;;5047303;28;20482;-82
2021/10/27 02:30:55;;;;;;;6.63;5.93;;;10.70;99.90;;;;;;5046669;28;20854;-83
2021/10/27 02:33:21;;;;;;;8.73;6.87;;;10.70;99.90;;;;;;5046962;28;20449;-83
2021/10/27 02:35:48;;;;;;;6.30;5.80;;;10.70;99.90;;;;;;5046045;28;20495;-82
2021/10/27 02:38:16;;;;;;;8.00;6.10;;;;;;;;;;5046631;28;20450;-82
2021/10/27 02:40:42;;;;;;;10.20;6.53;;;10.70;99.90;;;;;;5049141;28;20451;-81
2021/10/27 02:43:10;;;;;;;12.63;6.63;;;;;;;;;;5052915;28;20454;-81
2021/10/27 02:45:38;;;;;;;6.17;5.57;;;10.60;99.90;;;;;;5051849;28;21005;-82
2021/10/27 02:48:05;;;;;;;5.87;5.37;;;;;;;;;;5048853;28;20465;-82
2021/10/27 02:50:32;;;;;;;7.50;6.70;;;10.80;99.90;;;;;;5046604;28;20446;-82
2021/10/27 02:52:59;;;;;;;7.53;6.03;;;10.90;99.90;;;;;;5047451;28;20425;-83
2021/10/27 02:55:27;;;;;;;8.33;6.80;;;10.00;99.90;;;;;;5046518;28;20418;-82
2021/10/27 02:57:54;;;;;;;8.67;6.03;;;11.10;99.90;;;;;;5046383;28;20441;-82
2021/10/27 03:00:20;;;;;;;6.87;5.23;;;10.60;99.90;;;;;;5046110;28;20497;-82
2021/10/27 03:02:48;;;;;;;8.67;7.23;;;9.50;99.90;;;;;;5047994;28;20435;-83
2021/10/27 03:05:16;;;;;;;10.67;6.43;;;;;;;;;;5049778;28;20483;-82
2021/10/27 03:07:43;;;;;;;6.27;5.60;;;10.80;99.90;;;;;;5050834;28;20576;-83
2021/10/27 03:10:10;;;;;;;9.70;7.00;;;10.20;99.90;;;;;;5049686;28;20478;-83
2021/10/27 03:12:36;;;;;;;9.10;6.30;;;9.90;99.90;;;;;;5050013;28;20414;-82
2021/10/27 03:15:03;;;;;;;6.63;6.03;;;10.40;99.90;;;;;;5049625;28;20526;-82
2021/10/27 03:17:30;;;;;;;6.40;5.90;;;10.70;99.90;;;;;;5048782;28;20493;-82
2021/10/27 03:19:58;;;;;;;7.10;6.40;;;10.90;99.90;;;;;;5048934;28;20501;-82
2021/10/27 03:22:25;;;;;;;7.50;6.70;;;10.70;99.90;;;;;;5048867;28;20443;-82
2021/10/27 03:24:52;;;;;;;7.20;5.97;;;;;;;;;;5047908;28;20483;-81
2021/10/27 03:27:18;;;;;;;6.87;6.30;;;;;;;;;;5049020;28;20497;-82
2021/10/27 03:29:45;;;;;;;7.87;7.07;;;;;;;;;;5056536;28;20437;-83
2021/10/27 03:32:13;;;;;;;8.90;7.40;;;;;;;;;;5053061;28;20450;-83
2021/10/27 03:34:40;;;;;;;6.60;5.90;;;10.70;99.90;;;;;;5047546;28;20439;-83
2021/10/27 03:37:09;;;;;;;8.10;6.97;;;9.90;99.90;;;;;;5046133;28;20442;-81
2021/10/27 03:39:36;;;;;;;6.83;6.20;;;10.10;99.90;;;;;;5052953;28;20482;-81
2021/10/27 03:42:02;;;;;;;9.57;6.40;;;10.30;99.90;;;;;;5060465;28;20422;-81
2021/10/27 03:44:29;;;;;;;9.50;7.30;;;;;;;;;;5060154;28;20440;-81
2021/10/27 03:46:56;;;;;;;9.80;6.60;;;;;;;;;;5059581;28;20425;-81
2021/10/27 03:49:23;;;;;;;8.30;6.20;;;10.40;99.90;;;;;;5053961;28;20952;-82
2021/10/27 03:51:50;;;;;;;8.47;7.37;;;;;;;;;;5056671;28;20434;-82
2021/10/27 03:54:18;;;;;;;7.60;6.43;;;10.60;99.90;;;;;;5060462;28;20432;-81
2021/10/27 03:56:45;;;;;;;7.33;6.57;;;10.50;99.90;;;;;;5060517;28;20427;-80
2021/10/27 03:59:12;;;;;;;8.20;7.40;;;10.40;99.90;;;;;;5060216;28;20502;-81
2021/10/27 04:01:39;;;;;;;13.60;6.40;;;9.80;99.90;;;;;;5060359;28;20457;-81
2021/10/27 04:04:05;;;;;;;8.60;7.37;;;10.10;99.90;;;;;;5059049;28;20401;-80
2021/10/27 04:06:32;;;;;;;9.20;6.60;;;8.90;99.90;;;;;;5056778;28;20466;-81
2021/10/27 04:08:59;;;;;;;11.90;8.47;;;11.30;99.90;;;;;;5049241;28;20267;-82
2021/10/27 04:11:26;;;;;;;8.27;6.87;;;10.60;99.90;;;;;;5053933;28;20456;-80
2021/10/27 04:13:53;;;;;;;11.00;7.67;;;10.40;99.90;;;;;;5059404;28;20434;-81
2021/10/27 04:16:20;;;;;;;8.37;7.53;;;10.60;99.90;;;;;;5060006;28;20439;-81
2021/10/27 04:18:46;;;;;;;8.93;8.03;;;10.60;99.90;;;;;;5059575;28;20459;-81
2021/10/27 04:21:13;;;;;;;9.33;7.47;;;10.20;99.90;;;;;;5059791;28;20466;-81
2021/10/27 04:23:39;;;;;;;7.67;6.97;;;10.30;99.90;;;;;;5059605;28;20438;-81
2021/10/27 04:26:06;;;;;;;8.30;7.40;;;10.50;99.90;;;;;;5059285;28;20477;-82
2021/10/27 04:28:34;;;;;;;8.33;7.53;;;10.20;99.90;;;;;;5058513;28;20454;-82
2021/10/27 04:31:02;;;;;;;10.30;7.93;;;10.80;99.90;;;;;;5058124;28;20922;-80
2021/10/27 04:33:29;;;;;;;9.20;7.10;;;10.50;99.90;;;;;;5058342;28;20417;-80
2021/10/27 04:35:56;;;;;;;7.73;6.93;;;;;;;;;;5058493;28;20425;-80
2021/10/27 04:38:22;;;;;;;8.27;7.43;;;10.60;99.90;;;;;;5058181;28;20451;-79
2021/10/27 04:40:50;;;;;;;10.33;7.23;;;10.60;99.90;;;;;;5057899;28;20442;-80
2021/10/27 04:43:17;;;;;;;7.80;6.70;;;;;;;;;;5058650;28;20409;-80
2021/10/27 04:45:45;;;;;;;10.10;7.30;;;10.50;99.90;;;;;;5058471;28;20467;-80
2021/10/27 04:48:13;;;;;;;7.83;6.57;;;;;;;;;;5058992;28;20403;-80
2021/10/27 04:50:40;;;;;;;10.47;7.00;;;10.70;99.90;;;;;;5058836;28;20454;-79
2021/10/27 04:53:14;;;;;;;10.20;7.53;;;10.70;99.90;;;;;;5054831;28;20436;-80
2021/10/27 04:55:41;;;;;;;7.17;6.47;;;10.00;99.90;;;;;;5053245;28;20406;-80
2021/10/27 04:58:08;;;;;;;12.57;7.67;;;;;;;;;;5054030;28;20450;-81
2021/10/27 05:00:35;;;;;;;11.40;6.93;;;10.70;99.90;;;;;;5055590;28;20477;-81
2021/10/27 05:03:03;;;;;;;9.10;7.13;;;9.80;99.90;;;;;;5052209;28;20414;-81
2021/10/27 05:05:31;;;;;;;8.03;6.50;;;;;;;;;;5049223;28;20486;-81
2021/10/27 05:07:59;;;;;;;7.53;6.50;;;10.70;99.90;;;;;;5048793;28;20443;-82
2021/10/27 05:10:26;;;;;;;6.57;5.87;;;10.60;99.90;;;;;;5048007;28;20466;-82
2021/10/27 05:12:52;;;;;;;9.70;7.80;;;11.00;99.90;;;;;;5047585;28;20444;-82
2021/10/27 05:15:19;;;;;;;12.40;8.10;;;9.50;99.90;;;;;;5047909;28;20434;-82
2021/10/27 05:17:46;;;;;;;11.50;8.40;;;10.10;99.90;;;;;;5052428;28;20512;-82
2021/10/27 05:20:14;;;;;;;13.73;9.30;;;10.80;99.90;;;;;;5053677;28;20498;-81
2021/10/27 07:21:34;;;;;;;5.30;4.77;;;11.50;99.90;;;;;;5017927;28;21003;-80
2021/10/27 07:24:02;;;;;;;6.30;5.20;;;11.80;99.90;;;;;;5018734;28;20479;-81
2021/10/27 07:26:28;;;;;;;12.97;6.20;;;11.40;99.90;;;;;;5017919;28;20547;-80
2021/10/27 07:28:56;;;;;;;5.27;4.53;;;11.50;99.90;;;;;;5019403;28;20448;-81
2021/10/27 07:31:24;;;;;;;10.53;6.23;;;11.40;99.90;;;;;;5020222;28;20476;-81
2021/10/27 07:33:55;;;;;;;7.30;4.07;;;11.30;99.90;;;;;;5019527;28;20448;-80
2021/10/27 07:36:43;;;;;;;5.30;4.50;;;11.10;99.90;;;;;;5023731;28;20493;-82
2021/10/27 07:41:55;;;;;;;5.23;4.67;;;11.60;99.90;;;;;;5033499;28;20414;-80
2021/10/27 07:44:24;;;;;;;7.57;5.70;;;11.30;99.90;;;;;;5032256;28;20425;-82
2021/10/27 07:46:51;;;;;;;7.73;3.60;;;11.90;99.90;;;;;;5022210;28;20515;-80
2021/10/27 07:49:18;;;;;;;11.10;5.47;;;;;;;;;;5021218;28;20814;-81
2021/10/27 07:51:45;;;;;;;5.53;4.97;;;11.80;99.90;;;;;;5020757;28;20471;-81
2021/10/27 07:54:13;;;;;;;8.57;5.90;;;11.80;99.90;;;;;;5021690;28;20466;-81
2021/10/27 07:56:39;;;;;;;8.30;4.77;;;11.80;99.90;;;;;;5022212;28;20498;-81
2021/10/27 07:59:07;;;;;;;4.17;3.73;;;;;;;;;;5021833;28;20443;-80
2021/10/27 08:01:34;;;;;;;7.53;3.97;;;11.90;99.90;;;;;;5022277;28;20510;-81
2021/10/27 08:04:00;;;;;;;6.63;4.27;;;11.40;99.90;;;;;;5022876;28;20475;-81
2021/10/27 08:06:27;;;;;;;6.23;4.60;;;11.70;99.90;;;;;;5021953;28;20483;-80
2021/10/27 08:08:54;;;;;;;4.70;4.30;;;11.60;99.90;;;;;;5021082;28;20452;-80
2021/10/27 08:11:21;;;;;;;6.67;5.17;;;11.60;99.90;;;;;;5029966;28;20495;-81
2021/10/27 08:13:48;;;;;;;5.83;5.03;;;11.40;99.90;;;;;;5035429;28;20459;-80
2021/10/27 08:16:15;;;;;;;7.67;4.47;;;11.60;99.90;;;;;;5034630;28;20502;-81
2021/10/27 08:18:41;;;;;;;6.93;4.07;;;12.00;99.90;;;;;;5034929;28;20551;-81
2021/10/27 08:21:08;;;;;;;5.33;4.37;;;11.90;99.90;;;;;;5035045;28;20531;-80
2021/10/27 08:23:39;;;;;;;6.03;4.20;;;10.80;99.90;;;;;;5035465;28;20441;-81
2021/10/27 08:26:09;;;;;;;6.00;4.00;;;11.50;99.90;;;;;;5036085;28;20498;-80
2021/10/27 08:28:39;;;;;;;10.10;4.87;;;11.80;99.90;;;;;;5037704;28;20475;-81
2021/10/27 08:31:10;;;;;;;4.63;4.20;;;11.40;99.90;;;;;;5037738;28;20478;-80
2021/10/27 08:34:03;;;;;;;4.53;4.13;;;12.10;99.90;;;;;;5036951;28;20437;-80
2021/10/27 08:36:30;;;;;;;8.80;4.53;;;11.90;99.90;;;;;;5024531;28;20474;-81
2021/10/27 08:38:57;;;;;;;9.40;6.33;;;11.90;99.90;;;;;;5036739;28;20467;-80
2021/10/27 08:41:24;;;;;;;12.40;6.20;;;12.00;99.90;;;;;;5037876;28;20527;-81
2021/10/27 08:43:52;;;;;;;14.03;5.37;;;11.70;99.90;;;;;;5036550;28;20454;-80
2021/10/27 08:46:20;;;;;;;11.50;6.60;;;11.80;99.90;;;;;;5034060;28;20533;-80
2021/10/27 08:48:52;;;;;;;6.37;4.70;;;12.30;99.90;;;;;;5023046;28;20455;-81
2021/10/27 08:51:19;;;;;;;6.20;5.30;;;12.40;99.90;;;;;;5022859;28;20443;-81
2021/10/27 08:53:47;;;;;;;7.50;5.33;;;12.30;99.90;;;;;;5021446;28;20883;-81
2021/10/27 08:56:13;;;;;;;5.87;4.37;;;12.00;99.90;;;;;;5021127;28;20450;-81
2021/10/27 08:58:42;;;;;;;15.57;8.97;;;12.40;99.90;;;;;;5023642;28;20832;-80
2021/10/27 09:01:14;;;;;;;11.27;7.63;;;12.30;99.90;;;;;;5021664;28;20510;-81
2021/10/27 09:06:45;;;;;;;7.20;4.83;;;12.70;99.90;;;;;;5008554;28;20550;-82
2021/10/27 09:09:37;;;;;;;4.63;4.23;;;12.80;99.90;;;;;;5020326;28;20451;-81
2021/10/27 09:35:36;;;;;;;12.80;4.03;;;13.30;99.90;;;;;;4959700;29;20434;-81
2021/10/27 09:38:21;;;;;;;6.53;4.20;;;12.60;99.90;;;;;;5012628;28;20451;-81
2021/10/27 09:41:18;;;;;;;7.43;4.37;;;12.90;99.90;;;;;;5020067;28;20503;-81
2021/10/27 09:47:18;;;;;;;7.50;4.90;;;12.60;99.90;;;;;;5018925;28;20541;-81
2021/10/27 09:55:49;;;;;;;8.20;4.00;;;13.20;99.90;;;;;;5019949;28;20443;-81
2021/10/27 10:06:32;;;;;;;7.77;4.90;;;12.90;99.90;;;;;;5020506;28;20462;-81
2021/10/27 10:09:02;;;;;;;5.23;3.30;;;13.70;99.90;;;;;;5019068;28;20448;-80
2021/10/27 10:11:29;;;;;;;6.50;3.87;;;13.50;99.90;;;;;;5018161;28;20982;-80
2021/10/27 10:13:57;;;;;;;3.43;3.13;;;13.50;99.90;;;;;;5020574;28;20448;-82
2021/10/27 10:16:25;;;;;;;5.20;3.70;;;14.40;99.90;;;;;;5020077;28;20821;-81
2021/10/27 10:18:53;;;;;;;4.83;3.30;;;14.10;99.90;;;;;;5019017;28;20555;-81
2021/10/27 10:21:22;;;;;;;4.13;3.17;;;13.50;99.90;;;;;;5019256;28;20544;-82
2021/10/27 10:23:48;;;;;;;6.20;3.27;;;13.40;99.90;;;;;;5020874;28;20991;-81
2021/10/27 10:26:30;;;;;;;5.77;3.10;;;14.30;99.90;;;;;;5023917;28;20478;-82
2021/10/27 10:28:57;;;;;;;7.63;5.57;;;13.70;99.90;;;;;;5021994;28;20411;-82
2021/10/27 10:31:31;;;;;;;4.93;3.67;;;14.10;99.90;;;;;;5020282;28;20467;-81
2021/10/27 10:34:01;;;;;;;10.50;4.70;;;14.00;99.90;;;;;;5028038;28;20438;-82
2021/10/27 10:36:31;;;;;;;10.83;5.47;;;14.40;99.90;;;;;;5021743;28;20454;-81
2021/10/27 10:39:24;;;;;;;10.90;5.37;;;14.00;99.90;;;;;;5023167;28;20448;-81
2021/10/27 10:42:04;;;;;;;7.03;4.93;;;13.50;99.90;;;;;;5020400;28;20455;-81
2021/10/27 10:45:26;;;;;;;10.33;4.50;;;14.10;99.90;;;;;;5021245;28;20440;-81
2021/10/27 10:56:55;;;;;;;4.30;3.20;;;14.10;99.90;;;;;;5023233;28;20399;-80
2021/10/27 11:24:54;;;;;;;5.30;4.80;;;14.20;99.90;;;;;;5033391;28;20413;-81
2021/10/27 11:27:34;;;;;;;7.27;5.20;;;14.20;99.90;;;;;;5035966;28;20495;-81
2021/10/27 11:38:38;;;;;;;4.60;3.83;;;14.40;99.90;;;;;;5035300;28;20431;-83
2021/10/27 11:41:16;;;;;;;9.37;6.00;;;14.30;99.90;;;;;;5024459;28;20466;-82
2021/10/27 11:43:57;;;;;;;5.10;3.90;;;14.30;99.90;;;;;;5022056;28;20438;-82
2021/10/27 11:46:27;;;;;;;5.97;4.23;;;14.30;99.90;;;;;;5029684;28;20529;-81
2021/10/27 11:49:09;;;;;;;4.93;4.43;;;14.30;99.90;;;;;;5035096;28;20457;-81
2021/10/27 11:51:36;;;;;;;5.93;4.47;;;14.30;99.90;;;;;;5028333;28;20431;-81
2021/10/27 11:54:11;;;;;;;5.40;3.60;;;14.10;99.90;;;;;;5025319;28;20475;-82
2021/10/27 11:56:38;;;;;;;9.03;4.90;;;14.20;99.90;;;;;;5026371;28;20451;-81
2021/10/27 11:59:05;;;;;;;7.67;4.63;;;14.30;99.90;;;;;;5025306;28;20460;-82
2021/10/27 12:01:34;;;;;;;4.60;4.20;;;14.30;99.90;;;;;;5032932;28;20444;-82
2021/10/27 12:04:02;;;;;;;7.67;4.80;;;14.30;99.90;;;;;;5029139;28;20455;-81
2021/10/27 12:06:35;;;;;;;6.10;4.77;;;14.30;99.90;;;;;;5024647;28;20491;-81
2021/10/27 12:09:14;;;;;;;6.57;4.90;;;14.30;99.90;;;;;;5024759;28;20436;-82
2021/10/27 12:12:04;;;;;;;9.37;5.33;;;14.30;99.90;;;;;;5031481;28;20435;-82
2021/10/27 12:14:43;;;;;;;7.83;5.30;;;14.20;99.90;;;;;;5031222;28;20516;-82
2021/10/27 12:17:24;;;;;;;10.87;5.30;;;14.20;99.90;;;;;;5033639;28;20431;-82
2021/10/27 12:19:53;;;;;;;5.43;4.93;;;14.20;99.90;;;;;;5032906;28;20490;-82
2021/10/27 12:22:22;;;;;;;6.70;4.90;;;14.20;99.90;;;;;;5034187;28;20452;-81
2021/10/27 12:24:54;;;;;;;9.67;7.70;;;14.10;99.90;;;;;;5032524;28;20460;-80
2021/10/27 12:27:28;;;;;;;9.13;5.27;;;14.20;99.90;;;;;;5031546;28;20528;-82
2021/10/27 12:29:56;;;;;;;12.53;7.23;;;14.20;99.90;;;;;;5032281;28;20464;-81
2021/10/27 12:32:25;;;;;;;6.73;5.33;;;;;;;;;;5032558;28;20516;-81
2021/10/27 12:34:58;;;;;;;7.70;5.77;;;14.20;99.90;;;;;;5032812;28;20448;-81
2021/10/27 12:37:37;;;;;;;9.27;6.30;;;14.30;99.90;;;;;;5032084;28;20434;-81
2021/10/27 12:40:20;;;;;;;9.10;5.93;;;14.30;99.90;;;;;;5031749;28;20496;-81
2021/10/27 12:42:48;;;;;;;7.23;4.80;;;14.30;99.90;;;;;;5033413;28;20420;-81
2021/10/27 12:45:14;;;;;;;6.30;4.73;;;14.30;99.90;;;;;;5033026;28;20463;-80
2021/10/27 12:47:41;;;;;;;11.50;4.50;;;14.30;99.90;;;;;;5033920;28;20476;-81
2021/10/27 12:50:12;;;;;;;6.00;4.17;;;14.30;99.90;;;;;;5029595;28;20472;-81
2021/10/27 12:52:42;;;;;;;5.47;4.13;;;14.30;99.90;;;;;;5024666;28;20447;-81
2021/10/27 12:55:19;;;;;;;5.13;3.87;;;14.30;99.90;;;;;;5028215;28;20769;-82
2021/10/27 12:57:59;;;;;;;4.70;4.27;;;13.70;99.90;;;;;;5027982;28;20432;-81
2021/10/27 13:00:31;;;;;;;6.23;3.80;;;14.20;99.90;;;;;;5033578;28;20506;-81
2021/10/27 13:03:23;;;;;;;5.47;4.23;;;14.20;99.90;;;;;;5034764;28;20491;-80
2021/10/27 13:05:55;;;;;;;4.90;4.10;;;14.20;99.90;;;;;;5035658;28;20508;-81
2021/10/27 13:08:50;;;;;;;6.83;4.10;;;14.70;99.90;;;;;;5031804;28;20460;-81
2021/10/27 13:11:32;;;;;;;7.70;4.67;;;;;;;;;;5029769;28;20468;-82
2021/10/27 13:14:08;;;;;;;5.20;4.30;;;14.20;99.90;;;;;;5029538;28;20443;-81
2021/10/27 13:16:59;;;;;;;8.73;4.17;;;14.20;99.90;;;;;;5027913;28;20431;-81
2021/10/27 13:19:48;;;;;;;7.00;4.13;;;14.20;99.90;;;;;;5028201;28;20551;-81
2021/10/27 13:22:29;;;;;;;4.90;4.33;;;14.50;99.90;;;;;;5027417;28;20402;-82
2021/10/27 13:30:29;;;;;;;5.47;4.30;;;14.30;99.90;;;;;;5025563;28;20450;-82
2021/10/27 13:32:59;;;;;;;6.03;4.50;;;14.20;99.90;;;;;;5024886;28;20432;-81
2021/10/27 13:35:26;;;;;;;7.70;3.80;;;14.20;99.90;;;;;;5024924;28;20463;-81
2021/10/27 13:37:54;;;;;;;4.60;3.57;;;14.20;99.90;;;;;;5023705;28;20888;-82
2021/10/27 13:40:21;;;;;;;9.80;5.87;;;14.20;99.90;;;;;;5023529;28;20478;-81
2021/10/27 13:42:53;;;;;;;7.27;4.60;;;14.20;99.90;;;;;;5023758;28;20421;-81
2021/10/27 13:45:25;;;;;;;3.80;3.50;;;14.40;99.90;;;;;;5028844;28;20436;-80
2021/10/27 13:48:02;;;;;;;5.80;4.50;;;14.30;99.90;;;;;;5031738;28;20496;-81
2021/10/27 13:59:17;;;;;;;5.83;3.90;;;14.30;99.90;;;;;;5021400;28;20462;-81
2021/10/27 14:07:19;;;;;;;11.20;6.50;;;14.20;99.90;;;;;;5031426;28;20535;-81
2021/10/27 14:09:52;;;;;;;10.83;7.33;;;14.20;99.90;;;;;;5034669;28;20482;-82
2021/10/27 14:12:24;;;;;;;6.30;5.47;;;14.20;99.90;;;;;;5030081;28;20464;-81
2021/10/27 14:14:59;;;;;;;13.80;5.13;;;14.20;99.90;;;;;;5024338;28;20567;-82
2021/10/27 14:20:38;;;;;;;5.00;4.50;;;14.10;99.90;;;;;;4987716;28;20465;-81
2021/10/27 14:38:50;;;;;;;5.23;4.73;;;14.10;99.90;;;;;;5024869;28;20437;-81
2021/10/27 14:40:07;;;;;;;8.30;5.30;;;14.00;99.90;;;;;;5026881;28;20948;-82
2021/10/27 15:15:25;;;;;;;8.03;6.37;;;14.20;99.90;;;;;;5026038;28;20427;-80
2021/10/27 15:21:17;;;;;;;9.80;6.33;;;14.00;99.90;;;;;;5030781;28;20426;-81
2021/10/27 15:24:12;;;;;;;8.73;6.03;;;13.60;99.90;;;;;;5028960;28;20407;-82
2021/10/27 15:29:34;;;;;;;8.60;6.63;;;13.40;99.90;;;;;;5024552;28;20426;-82
2021/10/27 15:32:22;;;;;;;12.00;7.70;;;13.80;99.90;;;;;;5024838;28;20486;-81
2021/10/27 15:34:56;;;;;;;15.13;7.90;;;13.90;99.90;;;;;;5024242;28;20451;-82
2021/10/27 15:40:26;;;;;;;8.67;6.20;;;13.80;99.90;;;;;;5025628;28;20494;-80
2021/10/27 15:43:04;;;;;;;7.20;5.70;;;13.80;99.90;;;;;;5025544;28;20434;-81
2021/10/27 15:51:03;;;;;;;18.50;11.47;;;13.80;99.90;;;;;;5025100;28;20517;-82
2021/10/27 15:53:30;;;;;;;16.40;9.70;;;13.70;99.90;;;;;;5026920;28;20516;-81
2021/10/27 15:55:56;;;;;;;18.10;11.10;;;13.50;99.90;;;;;;5032550;28;20450;-81
2021/10/27 15:58:23;;;;;;;15.27;10.60;;;13.70;99.90;;;;;;5029348;28;20494;-81
2021/10/27 16:00:50;;;;;;;14.97;10.27;;;13.70;99.90;;;;;;5026875;28;20475;-82
2021/10/27 16:03:18;;;;;;;17.20;9.00;;;13.60;99.90;;;;;;5028088;28;20448;-81
2021/10/27 16:05:47;;;;;;;8.67;7.43;;;13.70;99.90;;;;;;5026727;28;20451;-81
2021/10/27 16:08:17;;;;;;;7.67;6.37;;;13.70;99.90;;;;;;5023552;28;20480;-82
2021/10/27 16:10:46;;;;;;;9.27;6.83;;;13.70;99.90;;;;;;5022251;28;20476;-81
2021/10/27 16:13:13;;;;;;;9.63;7.13;;;;;;;;;;5022391;28;20471;-80
2021/10/27 16:15:41;;;;;;;10.87;7.87;;;13.70;99.90;;;;;;5028427;28;20436;-82
2021/10/27 16:18:11;;;;;;;8.40;7.40;;;13.80;99.90;;;;;;5023329;28;20475;-81
2021/10/27 16:20:41;;;;;;;9.50;8.13;;;13.70;99.90;;;;;;5021049;28;20487;-81
2021/10/27 16:23:10;;;;;;;9.43;7.00;;;13.70;99.90;;;;;;5027766;28;20471;-82
2021/10/27 16:25:38;;;;;;;7.83;5.97;;;13.70;99.90;;;;;;5028402;28;20458;-82
2021/10/27 16:28:05;;;;;;;7.80;6.63;;;13.70;99.90;;;;;;5029779;28;20490;-81
2021/10/27 16:30:32;;;;;;;10.30;6.87;;;13.70;99.90;;;;;;5032732;28;20982;-81
2021/10/27 16:32:59;;;;;;;11.90;9.00;;;13.60;99.90;;;;;;5029236;28;20434;-81
2021/10/27 16:35:27;;;;;;;19.20;12.60;;;13.80;99.90;;;;;;5024209;28;20479;-82
2021/10/27 16:37:55;;;;;;;16.40;11.87;;;13.60;99.90;;;;;;5024231;28;20528;-81
2021/10/27 16:40:22;;;;;;;12.17;10.43;;;13.60;99.90;;;;;;5025352;28;20471;-81
2021/10/27 16:42:50;;;;;;;13.57;9.93;;;13.10;99.90;;;;;;5031322;28;20500;-81
2021/10/27 16:45:17;;;;;;;11.63;10.10;;;13.70;99.90;;;;;;5036488;28;20448;-82
2021/10/27 16:47:44;;;;;;;15.90;8.97;;;13.60;99.90;;;;;;5037313;28;20454;-81
2021/10/27 16:50:15;;;;;;;9.30;8.33;;;13.60;99.90;;;;;;5036161;28;20442;-81
2021/10/27 16:52:45;;;;;;;11.70;8.47;;;13.60;99.90;;;;;;5033997;28;20403;-82
2021/10/27 16:55:18;;;;;;;7.10;6.40;;;13.70;99.90;;;;;;5034443;28;20507;-81
2021/10/27 16:57:46;;;;;;;10.70;6.17;;;13.70;99.90;;;;;;5029015;28;20424;-81
2021/10/27 17:00:13;;;;;;;9.20;7.73;;;13.60;99.90;;;;;;5028247;28;20494;-82
2021/10/27 17:02:40;;;;;;;12.00;7.13;;;;;;;;;;5026350;28;20824;-81
2021/10/27 17:05:07;;;;;;;7.77;6.77;;;13.60;99.90;;;;;;5025947;28;20448;-81
2021/10/27 17:07:35;;;;;;;9.23;8.03;;;13.60;99.90;;;;;;5026709;28;20480;-82
2021/10/27 17:10:02;;;;;;;9.90;7.10;;;13.60;99.90;;;;;;5028174;28;20475;-82
2021/10/27 17:12:31;;;;;;;13.93;11.03;;;13.60;99.90;;;;;;5026763;28;20452;-82
2021/10/27 17:14:58;;;;;;;18.63;12.07;;;13.60;99.90;;;;;;5034118;28;20479;-82
2021/10/27 17:17:25;;;;;;;15.40;10.40;;;13.60;99.90;;;;;;5029985;28;20458;-82
2021/10/27 17:19:51;;;;;;;15.63;12.67;;;13.60;99.90;;;;;;5023088;28;20475;-82
2021/10/27 17:22:23;;;;;;;16.83;10.03;;;13.60;99.90;;;;;;5023510;28;20452;-81
2021/10/27 17:24:49;;;;;;;11.03;8.43;;;13.60;99.90;;;;;;5035169;28;20457;-80
2021/10/27 17:27:16;;;;;;;10.07;7.73;;;13.90;99.90;;;;;;5035198;28;20471;-81
2021/10/27 17:29:46;;;;;;;12.50;7.77;;;13.60;99.90;;;;;;5036551;28;20465;-81
2021/10/27 17:32:12;;;;;;;15.00;8.63;;;13.90;99.90;;;;;;5035890;28;20457;-81
2021/10/27 17:34:41;;;;;;;14.37;11.43;;;13.30;99.90;;;;;;5035444;28;20435;-81
2021/10/27 17:37:09;;;;;;;11.00;9.50;;;13.60;99.90;;;;;;5030403;28;20432;-81
2021/10/27 17:39:38;;;;;;;13.47;9.50;;;13.60;99.90;;;;;;5031793;28;20456;-82
2021/10/27 17:42:05;;;;;;;9.67;8.47;;;13.60;99.90;;;;;;5026454;28;20452;-82
2021/10/27 17:44:32;;;;;;;10.30;9.10;;;13.60;99.90;;;;;;5023866;28;20444;-82
2021/10/27 17:47:03;;;;;;;17.27;13.60;;;13.70;99.90;;;;;;5022900;28;20455;-81
2021/10/27 17:49:37;;;;;;;13.90;10.40;;;13.60;99.90;;;;;;5023937;28;20488;-82
2021/10/27 17:52:08;;;;;;;9.17;8.17;;;13.50;99.90;;;;;;5031838;28;20452;-82
2021/10/27 18:00:16;;;;;;;11.80;7.47;;;13.80;99.90;;;;;;5019033;28;20434;-83
2021/10/27 18:02:45;;;;;;;11.30;9.13;;;13.60;99.90;;;;;;5022446;28;20518;-81
2021/10/27 18:05:11;;;;;;;11.60;8.53;;;12.90;99.90;;;;;;5021762;28;20477;-81
2021/10/27 18:07:41;;;;;;;13.07;8.47;;;;;;;;;;5023240;28;20452;-81